createdAt,value
2022-08-19T00:01:29.230Z,9.30
2022-08-19T00:04:37.597Z,9.10
2022-08-19T00:07:43.805Z,8.73
2022-08-19T00:10:47.003Z,8.27
2022-08-19T00:13:50.922Z,8.50
2022-08-19T00:16:55.657Z,8.88
2022-08-19T00:19:58.419Z,9.02
2022-08-19T00:23:05.313Z,8.40
2022-08-19T00:26:09.169Z,9.32
2022-08-19T00:29:14.010Z,8.03
2022-08-19T00:32:16.792Z,7.75
2022-08-19T00:35:21.008Z,8.43
2022-08-19T00:38:34.980Z,8.40
2022-08-19T00:41:41.079Z,8.10
2022-08-19T00:44:44.048Z,8.17
2022-08-19T00:47:47.181Z,8.30
2022-08-19T00:50:52.509Z,7.70
2022-08-19T00:53:59.173Z,7.45
2022-08-19T00:57:03.944Z,7.78
2022-08-19T01:00:10.626Z,7.67
2022-08-19T01:03:15.905Z,7.88
2022-08-19T01:06:22.309Z,8.02
2022-08-19T01:09:26.323Z,7.78
2022-08-19T01:12:29.569Z,7.93
2022-08-19T01:15:35.180Z,9.53
2022-08-19T01:18:42.113Z,8.63
2022-08-19T01:21:53.126Z,7.78
2022-08-19T01:24:57.092Z,7.97
2022-08-19T01:28:09.227Z,8.07
2022-08-19T01:31:26.384Z,7.63
2022-08-19T01:34:30.292Z,7.35
2022-08-19T01:37:44.652Z,8.18
2022-08-19T01:40:49.042Z,7.22
2022-08-19T01:44:13.347Z,7.88
2022-08-19T01:47:15.124Z,7.97
2022-08-19T01:50:18.919Z,7.18
2022-08-19T01:53:23.828Z,7.88
2022-08-19T01:56:34.651Z,8.55
2022-08-19T01:59:37.566Z,8.27
2022-08-19T02:02:40.745Z,8.00
2022-08-19T02:05:47.029Z,7.80
2022-08-19T02:08:50.277Z,7.90
2022-08-19T02:11:55.753Z,7.70
2022-08-19T02:14:58.534Z,7.45
2022-08-19T02:18:01.145Z,7.90
2022-08-19T02:21:04.005Z,8.00
2022-08-19T02:24:07.188Z,7.95
2022-08-19T02:27:11.319Z,8.13
2022-08-19T02:30:17.593Z,8.40
2022-08-19T02:33:20.487Z,8.27
2022-08-19T02:36:24.147Z,9.30
2022-08-19T02:39:27.323Z,8.68
2022-08-19T02:42:31.699Z,8.90
2022-08-19T02:45:35.184Z,8.50
2022-08-19T02:48:37.936Z,9.13
2022-08-19T02:51:42.931Z,9.30
2022-08-19T02:54:46.396Z,10.48
2022-08-19T02:57:50.450Z,9.80
2022-08-19T03:00:56.269Z,10.27
2022-08-19T03:04:01.339Z,11.50
2022-08-19T03:07:10.770Z,10.93
2022-08-19T03:10:14.830Z,9.95
2022-08-19T03:13:20.056Z,11.18
2022-08-19T03:16:25.159Z,10.00
2022-08-19T03:19:28.620Z,10.40
2022-08-19T03:22:31.449Z,10.18
2022-08-19T03:25:38.994Z,9.45
2022-08-19T03:28:43.067Z,10.45
2022-08-19T03:31:53.632Z,11.15
2022-08-19T03:34:56.281Z,9.23
2022-08-19T03:38:00.459Z,9.70
2022-08-19T03:41:09.029Z,9.73
2022-08-19T03:44:18.509Z,10.93
2022-08-19T03:47:21.539Z,10.50
2022-08-19T03:50:25.313Z,10.30
2022-08-19T03:53:29.533Z,10.77
2022-08-19T03:56:33.474Z,11.65
2022-08-19T03:59:38.859Z,9.82
2022-08-19T04:02:41.851Z,9.77
2022-08-19T04:05:44.776Z,9.63
2022-08-19T04:08:48.245Z,10.45
2022-08-19T04:11:54.712Z,9.90
2022-08-19T04:14:59.441Z,10.43
2022-08-19T04:18:02.021Z,10.02
2022-08-19T04:21:07.574Z,9.43
2022-08-19T04:24:11.242Z,9.88
2022-08-19T04:27:14.457Z,10.88
2022-08-19T04:30:18.751Z,10.75
2022-08-19T04:33:26.868Z,10.57
2022-08-19T04:36:34.699Z,10.00
2022-08-19T04:39:55.001Z,10.20
2022-08-19T04:43:02.135Z,9.20
2022-08-19T04:46:08.915Z,9.43
2022-08-19T04:49:13.892Z,9.88
2022-08-19T04:52:18.094Z,9.00
2022-08-19T04:55:21.107Z,8.18
2022-08-19T04:58:24.192Z,10.02
2022-08-19T05:01:30.695Z,9.63
2022-08-19T05:04:34.548Z,9.88
2022-08-19T05:07:37.567Z,8.37
2022-08-19T05:10:41.680Z,8.73
2022-08-19T05:13:45.286Z,9.88
2022-08-19T05:16:49.681Z,9.40
2022-08-19T05:20:10.083Z,9.07
2022-08-19T05:23:20.602Z,9.20
2022-08-19T05:26:27.043Z,10.10
2022-08-19T05:29:33.387Z,10.48
2022-08-19T05:32:40.496Z,8.63
2022-08-19T05:35:43.393Z,8.90
2022-08-19T05:38:46.033Z,10.00
2022-08-19T05:41:50.380Z,9.23
2022-08-19T05:44:53.046Z,9.15
2022-08-19T05:47:57.177Z,9.57
2022-08-19T05:51:00.569Z,9.68
2022-08-19T05:54:04.286Z,9.87
2022-08-19T05:57:06.941Z,9.20
2022-08-19T06:00:12.336Z,9.15
2022-08-19T06:03:16.307Z,9.77
2022-08-19T06:06:20.159Z,8.98
2022-08-19T06:09:24.087Z,10.20
2022-08-19T06:12:34.991Z,9.48
2022-08-19T06:15:37.628Z,9.13
2022-08-19T06:18:41.648Z,9.27
2022-08-19T06:21:46.653Z,8.80
2022-08-19T06:24:53.663Z,8.70
2022-08-19T06:28:14.675Z,9.10
2022-08-19T06:31:21.267Z,9.15
2022-08-19T06:34:26.746Z,9.85
2022-08-19T06:37:29.427Z,11.07
2022-08-19T06:40:32.356Z,10.67
2022-08-19T06:43:35.000Z,10.20
2022-08-19T06:46:38.533Z,9.68
2022-08-19T06:49:44.259Z,11.30
2022-08-19T06:52:47.931Z,10.00
2022-08-19T06:56:01.424Z,10.47
2022-08-19T06:59:06.174Z,10.43
2022-08-19T07:02:10.138Z,11.25
2022-08-19T07:05:14.137Z,11.10
2022-08-19T07:08:16.863Z,12.10
2022-08-19T07:11:21.546Z,11.87
2022-08-19T07:14:29.252Z,11.18
2022-08-19T07:17:31.917Z,11.10
2022-08-19T07:20:42.135Z,11.82
2022-08-19T07:23:45.873Z,12.23
2022-08-19T07:26:51.596Z,11.93
2022-08-19T07:29:57.092Z,11.68
2022-08-19T07:33:00.515Z,11.88
2022-08-19T07:36:11.328Z,12.10
2022-08-19T07:39:17.437Z,11.48
2022-08-19T07:42:21.933Z,10.93
2022-08-19T07:45:24.778Z,12.10
2022-08-19T07:48:29.579Z,11.88
2022-08-19T07:51:36.968Z,11.52
2022-08-19T07:54:41.957Z,11.07
2022-08-19T08:00:53.070Z,12.00
2022-08-19T08:04:14.964Z,11.45
2022-08-19T08:07:37.140Z,10.48
2022-08-19T08:10:39.819Z,11.30
2022-08-19T08:13:44.754Z,11.97
2022-08-19T08:16:47.735Z,10.48
2022-08-19T08:19:51.915Z,10.23
2022-08-19T08:23:13.369Z,10.48
2022-08-19T08:26:17.163Z,10.70
2022-08-19T08:29:22.222Z,10.40
2022-08-19T08:32:28.813Z,10.75
2022-08-19T08:35:31.763Z,10.40
2022-08-19T08:38:39.695Z,10.85
2022-08-19T08:41:50.533Z,11.05
2022-08-19T08:45:00.066Z,10.77
2022-08-19T08:48:23.848Z,10.10
2022-08-19T08:51:34.923Z,10.57
2022-08-19T08:54:54.764Z,10.57
2022-08-19T08:58:02.919Z,10.70
2022-08-19T09:01:05.738Z,10.60
2022-08-19T09:04:09.492Z,10.50
2022-08-19T09:07:36.051Z,11.15
2022-08-19T09:10:45.943Z,10.25
2022-08-19T09:13:59.070Z,10.60
2022-08-19T09:17:04.294Z,10.40
2022-08-19T09:20:16.005Z,10.30
2022-08-19T09:23:19.253Z,11.98
2022-08-19T09:26:47.451Z,10.65
2022-08-19T09:29:55.921Z,9.73
2022-08-19T09:32:58.681Z,10.03
2022-08-19T09:36:08.353Z,10.10
2022-08-19T09:39:14.880Z,11.10
2022-08-19T09:42:30.259Z,11.48
2022-08-19T09:45:37.887Z,10.98
2022-08-19T09:48:41.942Z,10.90
2022-08-19T09:51:46.871Z,11.82
2022-08-19T09:54:54.538Z,10.70
2022-08-19T09:57:58.513Z,11.90
2022-08-19T10:01:03.080Z,11.32
2022-08-19T10:04:19.806Z,10.63
2022-08-19T10:07:23.407Z,10.63
2022-08-19T10:10:38.683Z,10.60
2022-08-19T10:13:47.944Z,10.93
2022-08-19T10:16:52.434Z,11.75
2022-08-19T10:19:56.128Z,10.67
2022-08-19T10:23:00.295Z,10.88
2022-08-19T10:26:07.073Z,11.75
2022-08-19T10:29:12.781Z,10.52
2022-08-19T10:32:15.603Z,10.57
2022-08-19T10:35:21.950Z,11.50
2022-08-19T10:38:31.384Z,11.27
2022-08-19T10:41:36.689Z,9.95
2022-08-19T10:44:40.834Z,9.93
2022-08-19T10:47:43.449Z,10.50
2022-08-19T10:51:03.519Z,10.43
2022-08-19T10:54:06.954Z,10.93
2022-08-19T10:57:14.736Z,10.80
2022-08-19T11:00:19.333Z,9.60
2022-08-19T11:03:22.575Z,9.75
2022-08-19T11:06:26.272Z,9.20
2022-08-19T11:09:33.880Z,9.82
2022-08-19T11:12:39.705Z,9.32
2022-08-19T11:15:44.053Z,10.02
2022-08-19T11:18:50.235Z,8.95
2022-08-19T11:21:57.525Z,9.60
2022-08-19T11:25:00.484Z,8.70
2022-08-19T11:28:03.276Z,8.32
2022-08-19T11:31:12.502Z,8.60
2022-08-19T11:34:19.025Z,8.27
2022-08-19T11:37:21.776Z,8.53
2022-08-19T11:40:24.567Z,8.00
2022-08-19T11:43:28.129Z,7.93
2022-08-19T11:46:33.325Z,7.95
2022-08-19T11:49:37.229Z,8.10
2022-08-19T11:52:40.111Z,7.50
2022-08-19T11:55:44.085Z,7.88
2022-08-19T11:58:47.235Z,9.10
2022-08-19T12:01:51.237Z,7.32
2022-08-19T12:04:54.570Z,8.13
2022-08-19T12:07:57.279Z,7.40
2022-08-19T12:11:02.044Z,7.43
2022-08-19T12:14:04.939Z,7.55
2022-08-19T12:17:10.201Z,7.10
2022-08-19T12:20:16.739Z,6.85
2022-08-19T12:23:19.667Z,7.10
2022-08-19T12:26:22.530Z,7.22
2022-08-19T12:29:29.539Z,7.90
2022-08-19T12:32:33.631Z,7.82
2022-08-19T12:35:36.545Z,7.50
2022-08-19T12:38:39.677Z,7.80
2022-08-19T12:41:50.576Z,8.27
2022-08-19T12:44:57.906Z,8.90
2022-08-19T12:48:01.908Z,8.52
2022-08-19T12:51:26.372Z,8.45
2022-08-19T12:54:29.300Z,8.57
2022-08-19T12:57:33.494Z,8.80
2022-08-19T13:00:36.245Z,8.45
2022-08-19T13:03:41.094Z,8.88
2022-08-19T13:06:44.366Z,8.75
2022-08-19T13:09:47.130Z,8.40
2022-08-19T13:12:52.351Z,9.20
2022-08-19T13:16:03.115Z,9.05
2022-08-19T13:19:08.404Z,8.88
2022-08-19T13:22:15.057Z,8.65
2022-08-19T13:25:20.620Z,8.87
2022-08-19T13:28:23.398Z,9.43
2022-08-19T13:31:51.863Z,8.98
2022-08-19T13:34:55.947Z,8.30
2022-08-19T13:37:58.747Z,8.93
2022-08-19T13:41:11.066Z,8.40
2022-08-19T13:44:15.044Z,8.77
2022-08-19T13:47:17.879Z,8.95
2022-08-19T13:50:25.998Z,9.15
2022-08-19T13:53:28.620Z,8.63
2022-08-19T13:56:31.366Z,8.57
2022-08-19T13:59:34.377Z,9.38
2022-08-19T14:02:38.665Z,8.48
2022-08-19T14:05:42.665Z,8.25
2022-08-19T14:08:46.347Z,8.38
2022-08-19T14:11:51.166Z,8.80
2022-08-19T14:14:53.926Z,8.30
2022-08-19T14:17:57.509Z,9.00
2022-08-19T14:21:01.499Z,8.38
2022-08-19T14:24:04.855Z,7.78
2022-08-19T14:27:07.597Z,8.13
2022-08-19T14:30:12.697Z,7.55
2022-08-19T14:33:15.718Z,8.07
2022-08-19T14:36:20.729Z,7.55
2022-08-19T14:39:23.326Z,7.60
2022-08-19T14:42:26.006Z,7.00
2022-08-19T14:45:29.660Z,7.60
2022-08-19T14:48:32.457Z,7.68
2022-08-19T14:51:36.490Z,7.55
2022-08-19T14:54:39.277Z,7.57
2022-08-19T14:57:43.168Z,8.00
2022-08-19T15:00:45.913Z,7.88
2022-08-19T15:03:49.790Z,7.43
2022-08-19T15:06:53.910Z,7.93
2022-08-19T15:09:56.550Z,7.38
2022-08-19T15:13:00.432Z,7.43
2022-08-19T15:16:03.660Z,7.38
2022-08-19T15:19:06.281Z,6.65
2022-08-19T15:22:10.585Z,7.00
2022-08-19T15:25:16.698Z,7.18
2022-08-19T15:28:19.613Z,6.90
2022-08-19T15:31:28.011Z,6.80
2022-08-19T15:34:32.460Z,7.28
2022-08-19T15:37:37.323Z,8.43
2022-08-19T15:40:41.759Z,7.68
2022-08-19T15:43:44.603Z,8.20
2022-08-19T15:46:48.679Z,7.50
2022-08-19T15:49:51.698Z,7.82
2022-08-19T15:53:00.850Z,7.85
2022-08-19T15:56:03.883Z,7.50
2022-08-19T15:59:23.810Z,7.40
2022-08-19T16:02:46.244Z,6.95
2022-08-19T16:06:06.615Z,8.18
2022-08-19T16:09:10.713Z,7.00
2022-08-19T16:12:14.148Z,7.00
2022-08-19T16:15:16.902Z,7.27
2022-08-19T16:18:19.835Z,7.00
2022-08-19T16:21:23.841Z,7.00
2022-08-19T16:24:29.474Z,6.68
2022-08-19T16:27:32.405Z,7.15
2022-08-19T16:30:35.188Z,6.23
2022-08-19T16:33:38.026Z,5.93
2022-08-19T16:36:44.328Z,6.55
2022-08-19T16:39:48.605Z,5.45
2022-08-19T16:42:52.427Z,5.82
2022-08-19T16:45:56.179Z,5.50
2022-08-19T16:48:59.421Z,5.85
2022-08-19T16:52:02.570Z,6.30
2022-08-19T16:55:08.598Z,5.55
2022-08-19T16:58:11.253Z,5.68
2022-08-19T17:01:14.654Z,5.10
2022-08-19T17:04:17.314Z,5.60
2022-08-19T17:07:20.728Z,5.22
2022-08-19T17:10:24.999Z,4.65
2022-08-19T17:13:29.717Z,4.88
2022-08-19T17:16:35.240Z,4.60
2022-08-19T17:19:38.037Z,5.40
2022-08-19T17:22:40.680Z,5.47
2022-08-19T17:25:44.899Z,4.88
2022-08-19T17:28:49.502Z,5.45
2022-08-19T17:31:52.799Z,5.33
2022-08-19T17:34:55.549Z,5.57
2022-08-19T17:37:58.621Z,5.10
2022-08-19T17:41:05.379Z,5.68
2022-08-19T17:44:09.111Z,6.28
2022-08-19T17:47:12.979Z,5.60
2022-08-19T17:50:16.375Z,6.03
2022-08-19T17:53:19.015Z,5.57
2022-08-19T17:56:23.958Z,5.40
2022-08-19T17:59:29.224Z,5.35
2022-08-19T18:02:33.256Z,5.20
2022-08-19T18:05:43.766Z,5.60
2022-08-19T18:08:49.161Z,6.13
2022-08-19T18:11:54.651Z,5.43
2022-08-19T18:14:59.350Z,5.38
2022-08-19T18:18:02.229Z,5.90
2022-08-19T18:21:05.736Z,6.25
2022-08-19T18:24:08.771Z,6.03
2022-08-19T18:27:12.934Z,6.05
2022-08-19T18:30:16.492Z,6.38
2022-08-19T18:33:19.689Z,5.87
2022-08-19T18:36:50.221Z,6.40
2022-08-19T18:39:59.551Z,6.18
2022-08-19T18:43:18.491Z,7.35
2022-08-19T18:46:38.657Z,8.00
2022-08-19T18:49:41.452Z,7.67
2022-08-19T18:52:44.379Z,8.02
2022-08-19T18:55:49.500Z,7.93
2022-08-19T18:58:53.696Z,8.98
2022-08-19T19:01:58.599Z,8.95
2022-08-19T19:05:06.886Z,8.67
2022-08-19T19:08:10.341Z,9.82
2022-08-19T19:11:13.453Z,8.95
2022-08-19T19:14:47.556Z,10.07
2022-08-19T19:17:46.961Z,10.20
2022-08-19T19:20:49.628Z,9.00
2022-08-19T19:23:53.375Z,9.73
2022-08-19T19:26:56.680Z,9.00
2022-08-19T19:30:00.859Z,9.40
2022-08-19T19:33:03.508Z,10.40
2022-08-19T19:36:06.927Z,10.67
2022-08-19T19:39:09.584Z,9.48
2022-08-19T19:42:20.007Z,9.80
2022-08-19T19:45:24.981Z,11.02
2022-08-19T19:48:28.564Z,9.80
2022-08-19T19:51:35.595Z,9.83
2022-08-19T19:54:41.812Z,10.05
2022-08-19T19:57:53.540Z,11.85
2022-08-19T20:00:59.205Z,11.18
2022-08-19T20:04:02.279Z,9.60
2022-08-19T20:07:05.153Z,8.97
2022-08-19T20:10:09.192Z,9.07
2022-08-19T20:13:15.554Z,10.18
2022-08-19T20:16:19.775Z,9.15
2022-08-19T20:19:26.169Z,10.35
2022-08-19T20:22:28.952Z,10.00
2022-08-19T20:25:39.437Z,9.40
2022-08-19T20:28:46.965Z,9.88
2022-08-19T20:32:02.664Z,9.80
2022-08-19T20:35:06.236Z,9.50
2022-08-19T20:38:09.535Z,10.47
2022-08-19T20:41:12.211Z,8.68
2022-08-19T20:44:15.197Z,9.02
2022-08-19T20:47:19.260Z,8.77
2022-08-19T20:50:22.984Z,8.73
2022-08-19T20:53:27.170Z,8.37
2022-08-19T20:56:30.009Z,8.95
2022-08-19T20:59:37.153Z,11.65
2022-08-19T21:02:42.114Z,9.82
2022-08-19T21:05:45.595Z,9.57
2022-08-19T21:08:49.103Z,9.20
2022-08-19T21:11:53.714Z,8.13
2022-08-19T21:14:56.487Z,8.52
2022-08-19T21:18:00.498Z,8.60
2022-08-19T21:21:03.619Z,8.23
2022-08-19T21:24:06.634Z,10.50
2022-08-19T21:27:09.537Z,8.35
2022-08-19T21:30:13.824Z,9.55
2022-08-19T21:33:18.016Z,8.63
2022-08-19T21:36:20.678Z,8.60
2022-08-19T21:39:23.613Z,9.00
2022-08-19T21:42:26.293Z,8.93
2022-08-19T21:45:29.798Z,9.05
2022-08-19T21:48:33.852Z,9.55
2022-08-19T21:51:36.665Z,10.32
2022-08-19T21:54:39.321Z,9.20
2022-08-19T21:57:42.765Z,9.52
2022-08-19T22:00:45.534Z,9.70
2022-08-19T22:03:49.908Z,7.80
2022-08-19T22:06:52.533Z,8.80
2022-08-19T22:09:55.332Z,8.90
2022-08-19T22:12:58.523Z,9.03
2022-08-19T22:16:01.517Z,9.23
2022-08-19T22:19:06.006Z,9.38
2022-08-19T22:22:08.842Z,9.15
2022-08-19T22:25:30.224Z,9.30
2022-08-19T22:28:35.068Z,8.15
2022-08-19T22:31:38.057Z,8.98
2022-08-19T22:34:43.913Z,8.00
2022-08-19T22:37:46.565Z,8.15
2022-08-19T22:40:50.984Z,9.20
2022-08-19T22:43:53.717Z,9.02
2022-08-19T22:46:56.645Z,8.50
2022-08-19T22:50:00.620Z,9.30
2022-08-19T22:53:03.631Z,8.52
2022-08-19T22:56:10.849Z,8.80
2022-08-19T22:59:17.363Z,8.15
2022-08-19T23:02:21.215Z,8.27
2022-08-19T23:05:28.983Z,8.20
2022-08-19T23:08:31.621Z,7.50
2022-08-19T23:11:38.177Z,8.27
2022-08-19T23:14:46.287Z,7.75
2022-08-19T23:17:49.416Z,8.40
2022-08-19T23:20:54.561Z,8.43
2022-08-19T23:23:57.570Z,8.45
2022-08-19T23:30:43.724Z,8.63
2022-08-19T23:33:51.456Z,9.23
2022-08-19T23:36:55.926Z,8.60
2022-08-19T23:39:58.768Z,9.10
2022-08-19T23:43:02.804Z,8.50
2022-08-19T23:46:13.213Z,8.23
2022-08-19T23:49:16.237Z,8.00
2022-08-19T23:52:20.617Z,8.07
2022-08-19T23:55:26.112Z,8.45
2022-08-19T23:58:30.290Z,8.77
